createdAt,value
2023-05-24T00:03:05.488Z,15.80
2023-05-24T00:06:54.042Z,11.90
2023-05-24T00:10:43.276Z,13.10
2023-05-24T00:14:34.040Z,15.30
2023-05-24T00:18:15.750Z,14.80
2023-05-24T00:22:04.239Z,12.10
2023-05-24T00:25:52.854Z,10.70
2023-05-24T00:29:41.368Z,11.80
2023-05-24T00:33:29.868Z,12.90
2023-05-24T00:37:18.830Z,12.30
2023-05-24T00:41:07.530Z,11.40
2023-05-24T00:44:55.989Z,13.30
2023-05-24T00:48:48.258Z,11.40
2023-05-24T00:52:36.767Z,11.00
2023-05-24T00:56:25.227Z,10.90
2023-05-24T01:00:13.714Z,10.10
2023-05-24T01:04:02.217Z,15.00
2023-05-24T01:08:28.140Z,13.90
2023-05-24T01:12:44.186Z,14.20
2023-05-24T01:16:42.178Z,13.80
2023-05-24T01:20:29.524Z,14.00
2023-05-24T01:24:13.980Z,10.50
2023-05-24T01:27:58.247Z,12.30
2023-05-24T01:31:39.966Z,10.10
2023-05-24T01:35:28.428Z,13.70
2023-05-24T01:39:09.791Z,10.20
2023-05-24T01:42:56.738Z,8.80
2023-05-24T01:46:43.819Z,14.20
2023-05-24T01:50:35.415Z,13.90
2023-05-24T01:54:17.426Z,11.30
2023-05-24T01:58:08.878Z,13.30
2023-05-24T02:01:57.357Z,12.70
2023-05-24T02:05:44.874Z,13.20
2023-05-24T02:09:33.391Z,14.40
2023-05-24T02:13:15.864Z,8.90
2023-05-24T02:17:04.079Z,10.60
2023-05-24T02:20:47.195Z,12.80
2023-05-24T02:24:35.729Z,10.70
2023-05-24T02:28:23.007Z,10.40
2023-05-24T02:31:58.258Z,10.50
2023-05-24T02:35:46.764Z,12.70
2023-05-24T02:39:27.191Z,13.60
2023-05-24T02:43:15.671Z,12.10
2023-05-24T02:47:03.289Z,13.90
2023-05-24T02:50:51.845Z,16.00
2023-05-24T02:54:34.101Z,13.10
2023-05-24T02:58:22.648Z,11.30
2023-05-24T03:02:11.131Z,11.60
2023-05-24T03:05:59.607Z,13.30
2023-05-24T03:09:41.685Z,13.60
2023-05-24T03:13:30.341Z,14.30
2023-05-24T03:17:17.865Z,13.40
2023-05-24T03:21:06.683Z,11.40
2023-05-24T03:24:55.171Z,10.00
2023-05-24T03:28:43.815Z,10.60
2023-05-24T03:32:32.373Z,11.90
2023-05-24T03:36:20.888Z,11.60
2023-05-24T03:40:07.482Z,12.00
2023-05-24T03:43:44.860Z,12.60
2023-05-24T03:47:22.160Z,12.90
2023-05-24T03:51:10.869Z,14.70
2023-05-24T03:54:58.363Z,14.80
2023-05-24T03:58:43.545Z,14.40
2023-05-24T04:02:32.123Z,11.60
2023-05-24T04:06:20.755Z,16.30
2023-05-24T04:10:04.383Z,13.20
2023-05-24T04:13:54.763Z,17.70
2023-05-24T04:17:35.253Z,11.50
2023-05-24T04:21:20.665Z,14.50
2023-05-24T04:25:01.358Z,18.50
2023-05-24T04:28:43.491Z,15.70
2023-05-24T04:32:13.776Z,14.10
2023-05-24T04:36:02.221Z,15.70
2023-05-24T04:39:43.575Z,14.30
2023-05-24T04:43:31.999Z,20.80
2023-05-24T04:47:20.004Z,17.10
2023-05-24T04:51:08.555Z,17.60
2023-05-24T04:54:57.051Z,17.50
2023-05-24T04:58:45.604Z,19.60
2023-05-24T05:02:35.673Z,18.00
2023-05-24T05:06:09.560Z,19.70
2023-05-24T05:09:51.967Z,16.70
2023-05-24T05:13:39.436Z,18.70
2023-05-24T05:17:26.880Z,19.70
2023-05-24T05:21:15.374Z,17.60
2023-05-24T05:24:57.003Z,21.70
2023-05-24T05:28:44.570Z,21.90
2023-05-24T05:32:32.219Z,19.80
2023-05-24T05:36:20.958Z,17.70
2023-05-24T05:40:03.565Z,18.90
2023-05-24T05:43:51.995Z,17.90
2023-05-24T05:47:34.609Z,16.30
2023-05-24T05:51:23.209Z,17.60
2023-05-24T05:54:50.527Z,13.20
2023-05-24T05:58:28.006Z,10.60
2023-05-24T06:02:18.421Z,17.50
2023-05-24T06:05:56.018Z,18.20
2023-05-24T06:09:44.626Z,13.00
2023-05-24T06:13:33.501Z,11.90
2023-05-24T06:17:21.976Z,11.90
2023-05-24T06:21:11.756Z,13.30
2023-05-24T06:25:00.248Z,12.00
2023-05-24T06:28:48.765Z,9.20
2023-05-24T06:32:30.676Z,10.70
2023-05-24T06:36:10.881Z,8.10
2023-05-24T06:39:59.360Z,5.70
2023-05-24T06:43:48.556Z,8.50
2023-05-24T06:47:36.442Z,7.60
2023-05-24T06:51:18.518Z,10.10
2023-05-24T06:54:49.335Z,8.80
2023-05-24T06:58:30.564Z,6.70
2023-05-24T07:02:10.671Z,9.30
2023-05-24T07:06:00.604Z,4.60
2023-05-24T07:09:49.123Z,6.90
2023-05-24T07:13:37.739Z,5.90
2023-05-24T07:17:26.313Z,6.00
2023-05-24T07:21:14.994Z,5.40
2023-05-24T07:25:02.329Z,7.50
2023-05-24T07:28:50.853Z,10.50
2023-05-24T07:32:39.485Z,10.40
2023-05-24T07:36:28.092Z,7.80
2023-05-24T07:40:16.585Z,5.70
2023-05-24T07:44:13.638Z,6.50
2023-05-24T07:48:02.336Z,6.70
2023-05-24T07:51:51.163Z,9.20
2023-05-24T07:55:40.612Z,11.00
2023-05-24T07:59:29.264Z,10.20
2023-05-24T08:03:18.301Z,9.70
2023-05-24T08:07:08.085Z,8.40
2023-05-24T08:10:57.966Z,12.30
2023-05-24T08:14:46.473Z,8.20
2023-05-24T08:18:34.974Z,6.40
2023-05-24T08:22:25.992Z,10.70
2023-05-24T08:26:14.530Z,8.00
2023-05-24T08:29:57.110Z,6.20
2023-05-24T08:33:40.957Z,9.70
2023-05-24T08:37:29.559Z,6.50
2023-05-24T08:41:10.727Z,6.10
2023-05-24T08:44:59.278Z,7.80
2023-05-24T08:48:47.725Z,6.00
2023-05-24T08:52:38.253Z,4.70
2023-05-24T08:56:31.744Z,7.40
2023-05-24T09:00:13.273Z,3.90
2023-05-24T09:04:01.123Z,7.30
2023-05-24T09:07:49.911Z,15.40
2023-05-24T09:11:39.460Z,10.10
2023-05-24T09:15:28.154Z,12.20
2023-05-24T09:19:16.721Z,8.30
2023-05-24T09:23:05.087Z,12.20
2023-05-24T09:26:54.445Z,5.60
2023-05-24T09:30:43.229Z,4.50
2023-05-24T09:34:24.530Z,6.30
2023-05-24T09:38:05.691Z,6.10
2023-05-24T09:41:59.209Z,9.90
2023-05-24T09:45:47.825Z,12.80
2023-05-24T09:49:39.389Z,7.50
2023-05-24T09:53:20.648Z,30.20
2023-05-24T09:57:04.206Z,22.70
2023-05-24T10:00:53.716Z,20.40
2023-05-24T10:04:54.826Z,22.60
2023-05-24T10:08:43.392Z,12.40
2023-05-24T10:12:30.939Z,12.80
2023-05-24T10:16:18.924Z,12.60
2023-05-24T10:20:07.576Z,13.30
2023-05-24T10:23:56.681Z,7.20
2023-05-24T10:27:45.224Z,10.50
2023-05-24T10:31:30.693Z,8.00
2023-05-24T10:35:19.368Z,14.00
2023-05-24T10:39:07.945Z,14.10
2023-05-24T10:42:25.840Z,14.50
2023-05-24T10:46:03.719Z,10.80
2023-05-24T10:49:34.115Z,11.60
2023-05-24T10:53:22.688Z,14.30
2023-05-24T10:57:11.474Z,11.80
2023-05-24T11:01:00.613Z,14.00
2023-05-24T11:04:49.189Z,18.70
2023-05-24T11:08:41.112Z,13.50
2023-05-24T11:12:29.626Z,13.50
2023-05-24T11:15:56.922Z,14.70
2023-05-24T11:19:45.465Z,16.10
2023-05-24T11:23:36.013Z,12.00
2023-05-24T11:27:26.261Z,14.10
2023-05-24T11:30:59.928Z,16.60
2023-05-24T11:34:48.468Z,13.60
2023-05-24T11:38:39.798Z,13.40
2023-05-24T11:42:28.869Z,15.40
2023-05-24T11:46:17.387Z,9.10
2023-05-24T11:50:05.988Z,11.30
2023-05-24T11:53:55.006Z,12.90
2023-05-24T11:57:44.372Z,12.20
2023-05-24T12:01:32.913Z,9.60
2023-05-24T12:05:21.504Z,10.90
2023-05-24T12:09:09.946Z,8.10
2023-05-24T12:12:58.455Z,9.70
2023-05-24T12:16:09.097Z,11.60
2023-05-24T12:20:00.519Z,8.50
2023-05-24T12:23:31.735Z,7.50
2023-05-24T12:27:23.249Z,8.80
2023-05-24T12:31:04.793Z,8.20
2023-05-24T12:35:01.687Z,6.20
2023-05-24T12:38:50.188Z,10.10
2023-05-24T12:42:30.678Z,7.40
2023-05-24T12:46:09.425Z,9.60
2023-05-24T12:49:49.556Z,10.90
2023-05-24T12:53:38.102Z,11.20
2023-05-24T12:57:26.773Z,8.50
2023-05-24T13:00:58.713Z,11.00
2023-05-24T13:04:40.110Z,8.70
2023-05-24T13:08:28.629Z,5.30
2023-05-24T13:12:07.631Z,6.30
2023-05-24T13:15:47.431Z,7.40
2023-05-24T13:19:34.914Z,6.30
2023-05-24T13:23:14.738Z,7.30
2023-05-24T13:27:02.183Z,7.30
2023-05-24T13:30:28.147Z,5.60
2023-05-24T13:34:09.265Z,8.50
2023-05-24T13:37:50.253Z,7.90
2023-05-24T13:44:35.659Z,13.50
2023-05-24T13:48:24.255Z,13.60
2023-05-24T13:51:36.219Z,8.10
2023-05-24T13:55:06.026Z,12.80
2023-05-24T13:58:43.207Z,6.20
2023-05-24T14:02:31.621Z,9.00
2023-05-24T14:06:20.550Z,8.10
2023-05-24T14:10:02.223Z,9.10
2023-05-24T14:17:02.200Z,10.40
2023-05-24T14:20:42.098Z,7.90
2023-05-24T14:24:23.679Z,9.30
2023-05-24T14:27:44.181Z,8.20
2023-05-24T14:31:22.078Z,9.60
2023-05-24T14:35:01.327Z,6.40
2023-05-24T14:38:18.940Z,5.80
2023-05-24T14:42:07.595Z,11.50
2023-05-24T14:45:41.375Z,8.30
2023-05-24T14:49:30.511Z,8.50
2023-05-24T14:53:09.668Z,11.50
2023-05-24T14:56:28.136Z,7.20
2023-05-24T14:59:47.024Z,9.90
2023-05-24T15:03:35.699Z,5.50
2023-05-24T15:07:05.992Z,11.30
2023-05-24T15:10:47.411Z,10.70
2023-05-24T15:14:35.889Z,10.90
2023-05-24T15:18:24.393Z,9.70
2023-05-24T15:22:12.892Z,7.70
2023-05-24T15:26:01.473Z,7.70
2023-05-24T15:29:50.196Z,9.30
2023-05-24T15:33:32.590Z,6.80
2023-05-24T15:37:22.180Z,6.50
2023-05-24T15:41:09.744Z,7.90
2023-05-24T15:44:58.413Z,9.90
2023-05-24T15:48:29.600Z,3.90
2023-05-24T15:52:11.007Z,6.20
2023-05-24T15:55:59.836Z,7.40
2023-05-24T15:59:49.128Z,7.80
2023-05-24T16:03:37.981Z,10.20
2023-05-24T16:07:26.936Z,5.60
2023-05-24T16:11:15.485Z,8.80
2023-05-24T16:14:54.193Z,6.60
2023-05-24T16:18:33.983Z,5.80
2023-05-24T16:21:58.202Z,6.50
2023-05-24T16:25:37.800Z,6.00
2023-05-24T16:29:18.165Z,6.10
2023-05-24T16:33:06.852Z,5.40
2023-05-24T16:36:47.152Z,4.80
2023-05-24T16:40:28.877Z,4.90
2023-05-24T16:44:16.323Z,7.00
2023-05-24T16:48:04.296Z,8.20
2023-05-24T16:51:49.585Z,8.90
2023-05-24T16:55:38.132Z,10.60
2023-05-24T16:59:26.670Z,15.00
2023-05-24T17:03:15.338Z,11.20
2023-05-24T17:07:04.369Z,6.20
2023-05-24T17:10:46.778Z,8.70
2023-05-24T17:14:35.287Z,8.00
2023-05-24T17:18:13.662Z,7.80
2023-05-24T17:21:45.252Z,5.70
2023-05-24T17:25:02.786Z,10.20
2023-05-24T17:28:38.128Z,4.50
2023-05-24T17:32:17.203Z,5.30
2023-05-24T17:35:51.026Z,9.00
2023-05-24T17:39:20.454Z,5.30
2023-05-24T17:41:53.920Z,9.20
2023-05-24T17:45:28.267Z,6.40
2023-05-24T17:49:16.843Z,16.20
2023-05-24T17:52:58.355Z,9.40
2023-05-24T17:56:46.897Z,8.70
2023-05-24T18:00:32.580Z,9.70
2023-05-24T18:04:21.649Z,8.50
2023-05-24T18:08:03.388Z,7.70
2023-05-24T18:11:54.302Z,12.80
2023-05-24T18:15:43.346Z,8.60
2023-05-24T18:19:32.070Z,20.10
2023-05-24T18:23:21.348Z,52.60
2023-05-24T18:27:03.748Z,20.20
2023-05-24T18:30:30.278Z,12.30
2023-05-24T18:34:18.895Z,15.40
2023-05-24T18:38:09.208Z,21.00
2023-05-24T18:41:50.854Z,19.30
2023-05-24T18:45:39.516Z,19.30
2023-05-24T18:49:22.405Z,21.40
2023-05-24T18:53:04.240Z,18.60
2023-05-24T18:56:54.896Z,20.00
2023-05-24T19:00:23.503Z,21.20
2023-05-24T19:04:11.086Z,20.80
2023-05-24T19:07:59.634Z,19.20
2023-05-24T19:11:48.392Z,16.80
2023-05-24T19:15:09.375Z,18.70
2023-05-24T19:18:50.636Z,18.30
2023-05-24T19:22:31.141Z,20.50
2023-05-24T19:26:19.618Z,20.30
2023-05-24T19:29:59.156Z,16.70
2023-05-24T19:33:59.257Z,20.80
2023-05-24T19:37:32.543Z,16.50
2023-05-24T19:41:21.294Z,19.10
2023-05-24T19:45:00.203Z,19.50
2023-05-24T19:48:48.752Z,18.80
2023-05-24T19:52:36.236Z,18.60
2023-05-24T19:56:24.758Z,20.50
2023-05-24T20:00:13.264Z,19.40
2023-05-24T20:03:42.211Z,20.60
2023-05-24T20:07:32.920Z,20.90
2023-05-24T20:11:21.463Z,22.80
2023-05-24T20:15:10.017Z,23.10
2023-05-24T20:18:58.536Z,25.80
2023-05-24T20:22:47.371Z,21.00
2023-05-24T20:26:35.863Z,20.10
2023-05-24T20:30:18.296Z,21.90
2023-05-24T20:33:42.368Z,22.50
2023-05-24T20:37:27.619Z,23.10
2023-05-24T20:41:11.278Z,21.30
2023-05-24T20:44:39.700Z,23.80
2023-05-24T20:48:21.162Z,17.60
2023-05-24T20:52:02.726Z,27.30
2023-05-24T20:55:51.258Z,22.90
2023-05-24T20:59:32.598Z,22.60
2023-05-24T21:03:02.063Z,21.60
2023-05-24T21:06:50.805Z,20.60
2023-05-24T21:10:39.936Z,21.70
2023-05-24T21:14:30.131Z,21.30
2023-05-24T21:18:18.608Z,22.20
2023-05-24T21:22:07.242Z,19.00
2023-05-24T21:25:55.990Z,18.50
2023-05-24T21:29:27.304Z,19.70
2023-05-24T21:32:58.945Z,22.40
2023-05-24T21:36:45.202Z,20.10
2023-05-24T21:40:32.460Z,21.70
2023-05-24T21:44:12.657Z,20.10
2023-05-24T21:47:54.292Z,18.30
2023-05-24T21:51:42.828Z,18.00
2023-05-24T21:55:30.159Z,16.80
2023-05-24T21:59:17.677Z,15.30
2023-05-24T22:02:59.239Z,17.60
2023-05-24T22:06:47.851Z,17.60
2023-05-24T22:10:28.851Z,16.40
2023-05-24T22:14:17.408Z,16.50
2023-05-24T22:18:06.075Z,14.40
2023-05-24T22:21:54.677Z,17.60
2023-05-24T22:25:43.408Z,18.80
2023-05-24T22:29:28.136Z,14.60
2023-05-24T22:33:04.988Z,17.90
2023-05-24T22:36:53.516Z,13.90
2023-05-24T22:40:40.676Z,17.20
2023-05-24T22:44:29.169Z,13.00
2023-05-24T22:48:17.697Z,20.50
2023-05-24T22:51:59.824Z,20.50
2023-05-24T22:55:48.558Z,19.50
2023-05-24T22:59:31.900Z,16.40
2023-05-24T23:03:18.861Z,16.30
2023-05-24T23:07:06.487Z,15.80
2023-05-24T23:10:47.091Z,20.20
2023-05-24T23:14:35.967Z,15.50
2023-05-24T23:18:24.925Z,16.50
2023-05-24T23:22:13.413Z,17.00
2023-05-24T23:25:58.325Z,17.20
2023-05-24T23:29:39.195Z,13.70
2023-05-24T23:33:20.592Z,14.10
2023-05-24T23:37:09.491Z,13.80
2023-05-24T23:40:57.011Z,16.30
2023-05-24T23:44:45.473Z,14.80
2023-05-24T23:48:33.626Z,15.80
2023-05-24T23:52:22.080Z,16.00
2023-05-24T23:55:46.384Z,16.50
2023-05-24T23:59:34.873Z,15.30
